sensor_id;sensor_type;location;lat;lon;timestamp;P1;durP1;ratioP1;P2;durP2;ratioP2
34497;SDS011;20744;50.938;7.286;2023-04-25T00:02:13;12.98;;;4.78;;
34497;SDS011;20744;50.938;7.286;2023-04-25T00:04:40;12.52;;;4.75;;
34497;SDS011;20744;50.938;7.286;2023-04-25T00:07:08;15.40;;;5.07;;
34497;SDS011;20744;50.938;7.286;2023-04-25T00:09:37;11.38;;;5.05;;
34497;SDS011;20744;50.938;7.286;2023-04-25T00:12:05;13.50;;;4.90;;
34497;SDS011;20744;50.938;7.286;2023-04-25T00:14:32;12.77;;;5.00;;
34497;SDS011;20744;50.938;7.286;2023-04-25T00:17:00;14.43;;;5.15;;
34497;SDS011;20744;50.938;7.286;2023-04-25T00:19:27;14.10;;;5.03;;
34497;SDS011;20744;50.938;7.286;2023-04-25T00:21:55;15.00;;;6.10;;
34497;SDS011;20744;50.938;7.286;2023-04-25T00:24:22;17.05;;;5.78;;
34497;SDS011;20744;50.938;7.286;2023-04-25T00:26:51;12.13;;;4.82;;
34497;SDS011;20744;50.938;7.286;2023-04-25T00:29:18;13.48;;;4.60;;
34497;SDS011;20744;50.938;7.286;2023-04-25T00:31:45;13.35;;;4.60;;
34497;SDS011;20744;50.938;7.286;2023-04-25T00:34:12;17.33;;;4.80;;
34497;SDS011;20744;50.938;7.286;2023-04-25T00:36:40;12.90;;;4.80;;
34497;SDS011;20744;50.938;7.286;2023-04-25T00:39:07;11.02;;;4.85;;
34497;SDS011;20744;50.938;7.286;2023-04-25T00:41:34;16.75;;;4.75;;
34497;SDS011;20744;50.938;7.286;2023-04-25T00:44:03;13.43;;;4.72;;
34497;SDS011;20744;50.938;7.286;2023-04-25T00:46:31;16.73;;;4.82;;
34497;SDS011;20744;50.938;7.286;2023-04-25T00:48:59;12.95;;;4.78;;
34497;SDS011;20744;50.938;7.286;2023-04-25T00:51:26;17.48;;;5.72;;
34497;SDS011;20744;50.938;7.286;2023-04-25T00:53:53;15.38;;;5.38;;
34497;SDS011;20744;50.938;7.286;2023-04-25T00:56:21;13.77;;;5.53;;
34497;SDS011;20744;50.938;7.286;2023-04-25T00:58:48;16.40;;;5.45;;
34497;SDS011;20744;50.938;7.286;2023-04-25T01:01:18;11.32;;;5.65;;
34497;SDS011;20744;50.938;7.286;2023-04-25T01:03:45;15.73;;;5.38;;
34497;SDS011;20744;50.938;7.286;2023-04-25T01:06:14;20.23;;;6.22;;
34497;SDS011;20744;50.938;7.286;2023-04-25T01:08:42;18.33;;;5.88;;
34497;SDS011;20744;50.938;7.286;2023-04-25T01:11:09;15.93;;;5.25;;
34497;SDS011;20744;50.938;7.286;2023-04-25T01:13:36;16.58;;;5.40;;
34497;SDS011;20744;50.938;7.286;2023-04-25T01:16:04;15.95;;;5.38;;
34497;SDS011;20744;50.938;7.286;2023-04-25T01:18:32;19.02;;;5.50;;
34497;SDS011;20744;50.938;7.286;2023-04-25T01:21:08;15.98;;;5.80;;
34497;SDS011;20744;50.938;7.286;2023-04-25T01:26:02;22.50;;;6.10;;
34497;SDS011;20744;50.938;7.286;2023-04-25T01:28:30;13.73;;;5.90;;
34497;SDS011;20744;50.938;7.286;2023-04-25T01:30:57;16.20;;;5.95;;
34497;SDS011;20744;50.938;7.286;2023-04-25T01:33:25;20.60;;;5.95;;
34497;SDS011;20744;50.938;7.286;2023-04-25T01:35:52;16.73;;;6.43;;
34497;SDS011;20744;50.938;7.286;2023-04-25T01:38:21;21.70;;;6.25;;
34497;SDS011;20744;50.938;7.286;2023-04-25T01:40:48;17.75;;;6.25;;
34497;SDS011;20744;50.938;7.286;2023-04-25T01:43:16;22.65;;;8.30;;
34497;SDS011;20744;50.938;7.286;2023-04-25T01:45:43;24.10;;;7.18;;
34497;SDS011;20744;50.938;7.286;2023-04-25T01:48:11;19.70;;;6.65;;
34497;SDS011;20744;50.938;7.286;2023-04-25T01:50:38;24.30;;;6.28;;
34497;SDS011;20744;50.938;7.286;2023-04-25T01:53:06;22.90;;;6.30;;
34497;SDS011;20744;50.938;7.286;2023-04-25T01:55:37;19.67;;;5.95;;
34497;SDS011;20744;50.938;7.286;2023-04-25T01:58:04;22.00;;;7.38;;
34497;SDS011;20744;50.938;7.286;2023-04-25T02:00:34;21.30;;;6.40;;
34497;SDS011;20744;50.938;7.286;2023-04-25T02:03:03;13.05;;;6.20;;
34497;SDS011;20744;50.938;7.286;2023-04-25T02:05:33;18.98;;;6.47;;
34497;SDS011;20744;50.938;7.286;2023-04-25T02:08:01;16.45;;;5.93;;
34497;SDS011;20744;50.938;7.286;2023-04-25T02:10:28;18.67;;;5.88;;
34497;SDS011;20744;50.938;7.286;2023-04-25T02:12:57;16.55;;;6.70;;
34497;SDS011;20744;50.938;7.286;2023-04-25T02:15:25;17.08;;;6.00;;
34497;SDS011;20744;50.938;7.286;2023-04-25T02:17:52;18.35;;;7.18;;
34497;SDS011;20744;50.938;7.286;2023-04-25T02:20:20;17.23;;;6.72;;
34497;SDS011;20744;50.938;7.286;2023-04-25T02:22:48;20.98;;;7.45;;
34497;SDS011;20744;50.938;7.286;2023-04-25T02:25:15;20.00;;;6.32;;
34497;SDS011;20744;50.938;7.286;2023-04-25T02:27:43;20.80;;;7.18;;
34497;SDS011;20744;50.938;7.286;2023-04-25T02:30:12;17.50;;;6.40;;
34497;SDS011;20744;50.938;7.286;2023-04-25T02:32:39;21.30;;;8.15;;
34497;SDS011;20744;50.938;7.286;2023-04-25T02:35:07;20.08;;;6.97;;
34497;SDS011;20744;50.938;7.286;2023-04-25T02:37:35;24.58;;;7.63;;
34497;SDS011;20744;50.938;7.286;2023-04-25T02:40:02;20.52;;;7.78;;
34497;SDS011;20744;50.938;7.286;2023-04-25T02:42:30;20.58;;;7.82;;
34497;SDS011;20744;50.938;7.286;2023-04-25T02:44:57;15.98;;;7.18;;
34497;SDS011;20744;50.938;7.286;2023-04-25T02:47:26;23.73;;;7.50;;
34497;SDS011;20744;50.938;7.286;2023-04-25T02:49:53;22.70;;;7.95;;
34497;SDS011;20744;50.938;7.286;2023-04-25T02:52:20;23.52;;;7.53;;
34497;SDS011;20744;50.938;7.286;2023-04-25T02:54:48;20.17;;;7.70;;
34497;SDS011;20744;50.938;7.286;2023-04-25T02:57:15;18.83;;;6.82;;
34497;SDS011;20744;50.938;7.286;2023-04-25T02:59:42;20.63;;;7.65;;
34497;SDS011;20744;50.938;7.286;2023-04-25T03:02:10;26.65;;;7.47;;
34497;SDS011;20744;50.938;7.286;2023-04-25T03:04:38;22.00;;;7.38;;
34497;SDS011;20744;50.938;7.286;2023-04-25T03:07:06;21.20;;;7.53;;
34497;SDS011;20744;50.938;7.286;2023-04-25T03:09:34;27.02;;;8.13;;
34497;SDS011;20744;50.938;7.286;2023-04-25T03:12:01;16.77;;;7.53;;
34497;SDS011;20744;50.938;7.286;2023-04-25T03:14:28;24.50;;;7.78;;
34497;SDS011;20744;50.938;7.286;2023-04-25T03:16:55;21.17;;;7.82;;
34497;SDS011;20744;50.938;7.286;2023-04-25T03:19:23;24.60;;;8.38;;
34497;SDS011;20744;50.938;7.286;2023-04-25T03:21:51;20.08;;;7.57;;
34497;SDS011;20744;50.938;7.286;2023-04-25T03:24:18;23.88;;;7.50;;
34497;SDS011;20744;50.938;7.286;2023-04-25T03:26:46;20.55;;;7.38;;
34497;SDS011;20744;50.938;7.286;2023-04-25T03:29:13;26.42;;;8.00;;
34497;SDS011;20744;50.938;7.286;2023-04-25T03:31:40;20.77;;;7.97;;
34497;SDS011;20744;50.938;7.286;2023-04-25T03:34:07;22.40;;;7.38;;
34497;SDS011;20744;50.938;7.286;2023-04-25T03:36:35;20.33;;;7.03;;
34497;SDS011;20744;50.938;7.286;2023-04-25T03:39:03;25.73;;;7.18;;
34497;SDS011;20744;50.938;7.286;2023-04-25T03:41:31;21.58;;;7.45;;
34497;SDS011;20744;50.938;7.286;2023-04-25T03:43:58;21.45;;;7.13;;
34497;SDS011;20744;50.938;7.286;2023-04-25T03:46:25;18.42;;;6.95;;
34497;SDS011;20744;50.938;7.286;2023-04-25T03:48:53;20.95;;;6.72;;
34497;SDS011;20744;50.938;7.286;2023-04-25T03:51:20;22.45;;;6.28;;
34497;SDS011;20744;50.938;7.286;2023-04-25T03:53:47;18.48;;;7.18;;
34497;SDS011;20744;50.938;7.286;2023-04-25T03:56:16;13.75;;;6.30;;
34497;SDS011;20744;50.938;7.286;2023-04-25T03:58:43;17.73;;;6.63;;
34497;SDS011;20744;50.938;7.286;2023-04-25T04:01:10;28.83;;;6.95;;
34497;SDS011;20744;50.938;7.286;2023-04-25T04:03:38;20.25;;;6.95;;
34497;SDS011;20744;50.938;7.286;2023-04-25T04:06:05;20.13;;;7.07;;
34497;SDS011;20744;50.938;7.286;2023-04-25T04:08:33;15.88;;;6.07;;
34497;SDS011;20744;50.938;7.286;2023-04-25T04:11:01;16.13;;;5.97;;
34497;SDS011;20744;50.938;7.286;2023-04-25T04:13:29;13.50;;;5.75;;
34497;SDS011;20744;50.938;7.286;2023-04-25T04:15:57;15.65;;;5.65;;
34497;SDS011;20744;50.938;7.286;2023-04-25T04:18:24;19.95;;;6.63;;
34497;SDS011;20744;50.938;7.286;2023-04-25T04:20:51;19.77;;;6.80;;
34497;SDS011;20744;50.938;7.286;2023-04-25T04:23:19;14.55;;;6.50;;
34497;SDS011;20744;50.938;7.286;2023-04-25T04:25:47;18.27;;;6.70;;
34497;SDS011;20744;50.938;7.286;2023-04-25T04:28:15;15.75;;;6.38;;
34497;SDS011;20744;50.938;7.286;2023-04-25T04:30:44;15.35;;;6.03;;
34497;SDS011;20744;50.938;7.286;2023-04-25T04:33:12;16.20;;;6.40;;
34497;SDS011;20744;50.938;7.286;2023-04-25T04:35:40;21.52;;;6.30;;
34497;SDS011;20744;50.938;7.286;2023-04-25T04:38:07;22.65;;;6.60;;
34497;SDS011;20744;50.938;7.286;2023-04-25T04:40:35;19.25;;;6.35;;
34497;SDS011;20744;50.938;7.286;2023-04-25T04:43:03;17.50;;;6.57;;
34497;SDS011;20744;50.938;7.286;2023-04-25T04:45:30;15.70;;;6.47;;
34497;SDS011;20744;50.938;7.286;2023-04-25T04:47:59;16.27;;;6.00;;
34497;SDS011;20744;50.938;7.286;2023-04-25T04:50:27;19.63;;;6.63;;
34497;SDS011;20744;50.938;7.286;2023-04-25T04:52:54;19.17;;;6.30;;
34497;SDS011;20744;50.938;7.286;2023-04-25T04:55:21;19.15;;;5.57;;
34497;SDS011;20744;50.938;7.286;2023-04-25T04:57:48;15.80;;;6.13;;
34497;SDS011;20744;50.938;7.286;2023-04-25T05:00:16;18.20;;;6.70;;
34497;SDS011;20744;50.938;7.286;2023-04-25T05:02:43;22.77;;;6.07;;
34497;SDS011;20744;50.938;7.286;2023-04-25T05:05:12;17.48;;;7.40;;
34497;SDS011;20744;50.938;7.286;2023-04-25T05:07:40;14.00;;;6.13;;
34497;SDS011;20744;50.938;7.286;2023-04-25T05:10:07;18.95;;;6.57;;
34497;SDS011;20744;50.938;7.286;2023-04-25T05:12:35;17.35;;;6.90;;
34497;SDS011;20744;50.938;7.286;2023-04-25T05:15:02;15.30;;;6.45;;
34497;SDS011;20744;50.938;7.286;2023-04-25T05:17:30;18.92;;;7.50;;
34497;SDS011;20744;50.938;7.286;2023-04-25T05:19:57;15.32;;;6.88;;
34497;SDS011;20744;50.938;7.286;2023-04-25T05:22:26;19.33;;;7.18;;
34497;SDS011;20744;50.938;7.286;2023-04-25T05:24:53;18.33;;;7.18;;
34497;SDS011;20744;50.938;7.286;2023-04-25T05:27:20;14.88;;;7.07;;
34497;SDS011;20744;50.938;7.286;2023-04-25T05:29:48;18.55;;;7.13;;
34497;SDS011;20744;50.938;7.286;2023-04-25T05:32:15;19.40;;;8.30;;
34497;SDS011;20744;50.938;7.286;2023-04-25T05:34:42;18.38;;;7.35;;
34497;SDS011;20744;50.938;7.286;2023-04-25T05:37:09;17.15;;;8.05;;
34497;SDS011;20744;50.938;7.286;2023-04-25T05:39:38;17.80;;;7.70;;
34497;SDS011;20744;50.938;7.286;2023-04-25T05:42:05;16.15;;;7.43;;
34497;SDS011;20744;50.938;7.286;2023-04-25T05:44:32;19.63;;;8.23;;
34497;SDS011;20744;50.938;7.286;2023-04-25T05:47:00;27.05;;;9.90;;
34497;SDS011;20744;50.938;7.286;2023-04-25T05:49:29;27.13;;;10.75;;
34497;SDS011;20744;50.938;7.286;2023-04-25T05:51:56;21.35;;;9.82;;
34497;SDS011;20744;50.938;7.286;2023-04-25T05:54:23;23.77;;;11.27;;
34497;SDS011;20744;50.938;7.286;2023-04-25T05:56:52;31.02;;;12.80;;
34497;SDS011;20744;50.938;7.286;2023-04-25T05:59:19;32.25;;;12.43;;
34497;SDS011;20744;50.938;7.286;2023-04-25T06:01:46;32.55;;;11.57;;
34497;SDS011;20744;50.938;7.286;2023-04-25T06:04:14;21.52;;;10.52;;
34497;SDS011;20744;50.938;7.286;2023-04-25T06:06:41;22.35;;;9.88;;
34497;SDS011;20744;50.938;7.286;2023-04-25T06:09:08;30.50;;;10.65;;
34497;SDS011;20744;50.938;7.286;2023-04-25T06:11:35;28.55;;;10.90;;
34497;SDS011;20744;50.938;7.286;2023-04-25T06:14:04;23.63;;;10.30;;
34497;SDS011;20744;50.938;7.286;2023-04-25T06:16:31;32.38;;;11.45;;
34497;SDS011;20744;50.938;7.286;2023-04-25T06:18:59;28.30;;;11.18;;
34497;SDS011;20744;50.938;7.286;2023-04-25T06:21:26;35.45;;;11.95;;
34497;SDS011;20744;50.938;7.286;2023-04-25T06:23:53;32.17;;;10.55;;
34497;SDS011;20744;50.938;7.286;2023-04-25T06:26:20;36.08;;;9.77;;
34497;SDS011;20744;50.938;7.286;2023-04-25T06:28:47;32.90;;;9.68;;
34497;SDS011;20744;50.938;7.286;2023-04-25T06:31:16;19.55;;;8.57;;
34497;SDS011;20744;50.938;7.286;2023-04-25T06:33:43;28.42;;;8.75;;
34497;SDS011;20744;50.938;7.286;2023-04-25T06:36:11;27.45;;;8.65;;
34497;SDS011;20744;50.938;7.286;2023-04-25T06:38:38;25.67;;;7.53;;
34497;SDS011;20744;50.938;7.286;2023-04-25T06:41:05;32.72;;;7.70;;
34497;SDS011;20744;50.938;7.286;2023-04-25T06:43:32;24.55;;;7.63;;
34497;SDS011;20744;50.938;7.286;2023-04-25T06:46:00;21.48;;;6.05;;
34497;SDS011;20744;50.938;7.286;2023-04-25T06:48:28;25.80;;;6.97;;
34497;SDS011;20744;50.938;7.286;2023-04-25T06:50:56;24.92;;;6.78;;
34497;SDS011;20744;50.938;7.286;2023-04-25T06:53:23;19.73;;;6.20;;
34497;SDS011;20744;50.938;7.286;2023-04-25T06:55:53;19.50;;;5.88;;
34497;SDS011;20744;50.938;7.286;2023-04-25T06:58:20;16.52;;;6.07;;
34497;SDS011;20744;50.938;7.286;2023-04-25T07:00:47;24.13;;;6.20;;
34497;SDS011;20744;50.938;7.286;2023-04-25T07:03:15;20.48;;;6.38;;
34497;SDS011;20744;50.938;7.286;2023-04-25T07:05:43;21.95;;;6.88;;
34497;SDS011;20744;50.938;7.286;2023-04-25T07:08:11;20.40;;;6.45;;
34497;SDS011;20744;50.938;7.286;2023-04-25T07:10:38;20.83;;;5.35;;
34497;SDS011;20744;50.938;7.286;2023-04-25T07:13:05;21.20;;;5.95;;
34497;SDS011;20744;50.938;7.286;2023-04-25T07:15:32;20.77;;;5.45;;
34497;SDS011;20744;50.938;7.286;2023-04-25T07:18:00;20.65;;;5.70;;
34497;SDS011;20744;50.938;7.286;2023-04-25T07:20:27;24.17;;;5.38;;
34497;SDS011;20744;50.938;7.286;2023-04-25T07:22:57;30.20;;;5.65;;
34497;SDS011;20744;50.938;7.286;2023-04-25T07:25:24;17.58;;;5.18;;
34497;SDS011;20744;50.938;7.286;2023-04-25T07:27:51;20.90;;;4.57;;
34497;SDS011;20744;50.938;7.286;2023-04-25T07:30:19;18.70;;;5.07;;
34497;SDS011;20744;50.938;7.286;2023-04-25T07:32:46;21.48;;;4.65;;
34497;SDS011;20744;50.938;7.286;2023-04-25T07:35:13;20.13;;;4.47;;
34497;SDS011;20744;50.938;7.286;2023-04-25T07:37:41;14.40;;;3.63;;
34497;SDS011;20744;50.938;7.286;2023-04-25T07:40:10;20.52;;;4.00;;
34497;SDS011;20744;50.938;7.286;2023-04-25T07:42:37;17.80;;;3.50;;
34497;SDS011;20744;50.938;7.286;2023-04-25T07:45:05;16.20;;;3.70;;
34497;SDS011;20744;50.938;7.286;2023-04-25T07:47:32;15.82;;;3.20;;
34497;SDS011;20744;50.938;7.286;2023-04-25T07:49:59;14.48;;;3.50;;
34497;SDS011;20744;50.938;7.286;2023-04-25T07:52:27;17.08;;;3.30;;
34497;SDS011;20744;50.938;7.286;2023-04-25T07:54:54;16.73;;;3.25;;
34497;SDS011;20744;50.938;7.286;2023-04-25T07:57:24;18.23;;;3.40;;
34497;SDS011;20744;50.938;7.286;2023-04-25T07:59:51;13.00;;;2.85;;
34497;SDS011;20744;50.938;7.286;2023-04-25T08:02:18;23.60;;;3.55;;
34497;SDS011;20744;50.938;7.286;2023-04-25T08:04:45;12.88;;;3.15;;
34497;SDS011;20744;50.938;7.286;2023-04-25T08:07:14;17.15;;;3.65;;
34497;SDS011;20744;50.938;7.286;2023-04-25T08:09:41;16.38;;;3.17;;
34497;SDS011;20744;50.938;7.286;2023-04-25T08:12:09;20.92;;;3.30;;
34497;SDS011;20744;50.938;7.286;2023-04-25T08:14:38;15.00;;;3.25;;
34497;SDS011;20744;50.938;7.286;2023-04-25T08:17:05;11.50;;;2.92;;
34497;SDS011;20744;50.938;7.286;2023-04-25T08:19:32;12.80;;;3.08;;
34497;SDS011;20744;50.938;7.286;2023-04-25T08:22:03;20.60;;;3.55;;
34497;SDS011;20744;50.938;7.286;2023-04-25T08:24:30;17.95;;;4.20;;
34497;SDS011;20744;50.938;7.286;2023-04-25T08:26:57;16.48;;;3.42;;
34497;SDS011;20744;50.938;7.286;2023-04-25T08:29:25;16.30;;;3.10;;
34497;SDS011;20744;50.938;7.286;2023-04-25T08:31:54;17.15;;;3.60;;
34497;SDS011;20744;50.938;7.286;2023-04-25T08:34:22;10.65;;;2.60;;
34497;SDS011;20744;50.938;7.286;2023-04-25T08:36:50;13.82;;;2.60;;
34497;SDS011;20744;50.938;7.286;2023-04-25T08:39:17;16.88;;;2.85;;
34497;SDS011;20744;50.938;7.286;2023-04-25T08:41:45;11.20;;;2.40;;
34497;SDS011;20744;50.938;7.286;2023-04-25T08:44:13;12.13;;;2.80;;
34497;SDS011;20744;50.938;7.286;2023-04-25T08:46:40;13.70;;;3.40;;
34497;SDS011;20744;50.938;7.286;2023-04-25T08:49:09;9.63;;;2.78;;
34497;SDS011;20744;50.938;7.286;2023-04-25T08:51:38;10.45;;;1.98;;
34497;SDS011;20744;50.938;7.286;2023-04-25T08:54:08;13.90;;;2.38;;
34497;SDS011;20744;50.938;7.286;2023-04-25T08:56:36;11.35;;;2.20;;
34497;SDS011;20744;50.938;7.286;2023-04-25T08:59:04;10.27;;;2.38;;
34497;SDS011;20744;50.938;7.286;2023-04-25T09:01:33;9.55;;;2.20;;
34497;SDS011;20744;50.938;7.286;2023-04-25T09:04:01;8.85;;;2.28;;
34497;SDS011;20744;50.938;7.286;2023-04-25T09:06:30;10.48;;;2.40;;
34497;SDS011;20744;50.938;7.286;2023-04-25T09:09:00;13.20;;;2.65;;
34497;SDS011;20744;50.938;7.286;2023-04-25T09:11:29;13.05;;;2.53;;
34497;SDS011;20744;50.938;7.286;2023-04-25T09:14:09;11.20;;;2.40;;
34497;SDS011;20744;50.938;7.286;2023-04-25T09:19:20;23.27;;;3.88;;
34497;SDS011;20744;50.938;7.286;2023-04-25T09:21:50;11.95;;;2.50;;
34497;SDS011;20744;50.938;7.286;2023-04-25T09:24:18;15.77;;;2.63;;
34497;SDS011;20744;50.938;7.286;2023-04-25T09:26:46;13.07;;;2.90;;
34497;SDS011;20744;50.938;7.286;2023-04-25T09:29:13;12.98;;;3.13;;
34497;SDS011;20744;50.938;7.286;2023-04-25T09:31:41;13.88;;;3.00;;
34497;SDS011;20744;50.938;7.286;2023-04-25T09:34:08;14.95;;;2.70;;
34497;SDS011;20744;50.938;7.286;2023-04-25T09:36:40;12.88;;;2.70;;
34497;SDS011;20744;50.938;7.286;2023-04-25T09:39:11;9.35;;;2.72;;
34497;SDS011;20744;50.938;7.286;2023-04-25T09:41:41;10.90;;;3.25;;
34497;SDS011;20744;50.938;7.286;2023-04-25T09:44:08;10.48;;;2.80;;
34497;SDS011;20744;50.938;7.286;2023-04-25T09:46:39;10.18;;;2.97;;
34497;SDS011;20744;50.938;7.286;2023-04-25T09:49:07;9.23;;;2.38;;
34497;SDS011;20744;50.938;7.286;2023-04-25T09:51:34;12.70;;;3.00;;
34497;SDS011;20744;50.938;7.286;2023-04-25T09:54:01;9.73;;;2.22;;
34497;SDS011;20744;50.938;7.286;2023-04-25T09:56:30;10.30;;;2.60;;
34497;SDS011;20744;50.938;7.286;2023-04-25T09:58:59;12.02;;;2.15;;
34497;SDS011;20744;50.938;7.286;2023-04-25T10:01:26;9.52;;;2.33;;
34497;SDS011;20744;50.938;7.286;2023-04-25T10:03:54;16.05;;;3.08;;
34497;SDS011;20744;50.938;7.286;2023-04-25T10:06:22;12.18;;;2.70;;
34497;SDS011;20744;50.938;7.286;2023-04-25T10:08:50;16.10;;;2.75;;
34497;SDS011;20744;50.938;7.286;2023-04-25T10:11:19;10.63;;;2.80;;
34497;SDS011;20744;50.938;7.286;2023-04-25T10:13:49;13.20;;;2.60;;
34497;SDS011;20744;50.938;7.286;2023-04-25T10:16:17;11.52;;;2.97;;
34497;SDS011;20744;50.938;7.286;2023-04-25T10:18:44;12.45;;;2.80;;
34497;SDS011;20744;50.938;7.286;2023-04-25T10:21:11;13.35;;;3.03;;
34497;SDS011;20744;50.938;7.286;2023-04-25T10:23:39;9.05;;;2.60;;
34497;SDS011;20744;50.938;7.286;2023-04-25T10:26:07;14.85;;;2.55;;
34497;SDS011;20744;50.938;7.286;2023-04-25T10:31:21;7.53;;;2.17;;
34497;SDS011;20744;50.938;7.286;2023-04-25T10:33:48;7.40;;;2.40;;
34497;SDS011;20744;50.938;7.286;2023-04-25T10:36:17;8.82;;;2.20;;
34497;SDS011;20744;50.938;7.286;2023-04-25T10:38:46;13.48;;;2.13;;
34497;SDS011;20744;50.938;7.286;2023-04-25T10:41:15;10.07;;;2.30;;
34497;SDS011;20744;50.938;7.286;2023-04-25T10:43:44;12.77;;;2.90;;
34497;SDS011;20744;50.938;7.286;2023-04-25T10:46:15;15.75;;;3.03;;
34497;SDS011;20744;50.938;7.286;2023-04-25T10:48:45;10.48;;;2.72;;
34497;SDS011;20744;50.938;7.286;2023-04-25T10:51:16;7.65;;;2.33;;
34497;SDS011;20744;50.938;7.286;2023-04-25T10:53:43;11.73;;;2.40;;
34497;SDS011;20744;50.938;7.286;2023-04-25T10:56:11;11.88;;;2.42;;
34497;SDS011;20744;50.938;7.286;2023-04-25T10:58:42;12.10;;;2.78;;
34497;SDS011;20744;50.938;7.286;2023-04-25T11:01:09;11.40;;;2.50;;
34497;SDS011;20744;50.938;7.286;2023-04-25T11:03:40;9.02;;;2.03;;
34497;SDS011;20744;50.938;7.286;2023-04-25T11:06:11;12.45;;;2.40;;
34497;SDS011;20744;50.938;7.286;2023-04-25T11:08:44;10.52;;;2.10;;
34497;SDS011;20744;50.938;7.286;2023-04-25T11:11:14;13.95;;;2.63;;
34497;SDS011;20744;50.938;7.286;2023-04-25T11:13:41;12.27;;;2.03;;
34497;SDS011;20744;50.938;7.286;2023-04-25T11:16:09;6.47;;;1.80;;
34497;SDS011;20744;50.938;7.286;2023-04-25T11:18:36;6.57;;;2.15;;
34497;SDS011;20744;50.938;7.286;2023-04-25T11:21:03;9.55;;;2.00;;
34497;SDS011;20744;50.938;7.286;2023-04-25T11:23:32;8.57;;;2.03;;
34497;SDS011;20744;50.938;7.286;2023-04-25T11:25:59;6.57;;;1.70;;
34497;SDS011;20744;50.938;7.286;2023-04-25T11:28:27;8.43;;;1.85;;
34497;SDS011;20744;50.938;7.286;2023-04-25T11:30:54;7.28;;;2.10;;
34497;SDS011;20744;50.938;7.286;2023-04-25T11:33:23;15.02;;;2.25;;
34497;SDS011;20744;50.938;7.286;2023-04-25T11:35:51;5.75;;;1.63;;
34497;SDS011;20744;50.938;7.286;2023-04-25T11:38:20;8.80;;;1.90;;
34497;SDS011;20744;50.938;7.286;2023-04-25T11:40:50;10.15;;;2.00;;
34497;SDS011;20744;50.938;7.286;2023-04-25T11:43:18;6.65;;;1.75;;
34497;SDS011;20744;50.938;7.286;2023-04-25T11:45:47;9.65;;;2.08;;
34497;SDS011;20744;50.938;7.286;2023-04-25T11:48:15;11.32;;;1.77;;
34497;SDS011;20744;50.938;7.286;2023-04-25T11:50:42;10.82;;;1.83;;
34497;SDS011;20744;50.938;7.286;2023-04-25T11:53:10;8.52;;;1.73;;
34497;SDS011;20744;50.938;7.286;2023-04-25T11:55:37;10.35;;;1.98;;
34497;SDS011;20744;50.938;7.286;2023-04-25T11:58:06;7.05;;;1.60;;
34497;SDS011;20744;50.938;7.286;2023-04-25T12:00:34;8.38;;;2.15;;
34497;SDS011;20744;50.938;7.286;2023-04-25T12:03:01;9.27;;;1.98;;
34497;SDS011;20744;50.938;7.286;2023-04-25T12:05:31;9.85;;;2.00;;
34497;SDS011;20744;50.938;7.286;2023-04-25T12:08:09;7.93;;;1.63;;
34497;SDS011;20744;50.938;7.286;2023-04-25T12:10:38;8.50;;;1.85;;
34497;SDS011;20744;50.938;7.286;2023-04-25T12:13:19;5.85;;;1.50;;
34497;SDS011;20744;50.938;7.286;2023-04-25T12:15:47;6.25;;;1.50;;
34497;SDS011;20744;50.938;7.286;2023-04-25T12:18:14;13.20;;;1.80;;
34497;SDS011;20744;50.938;7.286;2023-04-25T12:20:41;4.30;;;1.15;;
34497;SDS011;20744;50.938;7.286;2023-04-25T12:23:09;8.13;;;1.55;;
34497;SDS011;20744;50.938;7.286;2023-04-25T12:25:38;5.60;;;1.30;;
34497;SDS011;20744;50.938;7.286;2023-04-25T12:28:09;3.60;;;1.20;;
34497;SDS011;20744;50.938;7.286;2023-04-25T12:33:32;4.97;;;1.20;;
34497;SDS011;20744;50.938;7.286;2023-04-25T12:36:00;7.32;;;1.48;;
34497;SDS011;20744;50.938;7.286;2023-04-25T12:38:35;4.15;;;1.42;;
34497;SDS011;20744;50.938;7.286;2023-04-25T12:41:02;4.50;;;1.33;;
34497;SDS011;20744;50.938;7.286;2023-04-25T12:43:30;6.07;;;1.33;;
34497;SDS011;20744;50.938;7.286;2023-04-25T12:45:57;6.53;;;1.00;;
34497;SDS011;20744;50.938;7.286;2023-04-25T12:48:25;7.90;;;1.10;;
34497;SDS011;20744;50.938;7.286;2023-04-25T12:50:53;4.60;;;1.55;;
34497;SDS011;20744;50.938;7.286;2023-04-25T12:53:21;8.38;;;1.30;;
34497;SDS011;20744;50.938;7.286;2023-04-25T12:55:49;4.68;;;1.40;;
34497;SDS011;20744;50.938;7.286;2023-04-25T12:58:16;4.47;;;1.00;;
34497;SDS011;20744;50.938;7.286;2023-04-25T13:00:44;7.10;;;1.42;;
34497;SDS011;20744;50.938;7.286;2023-04-25T13:03:12;3.88;;;1.20;;
34497;SDS011;20744;50.938;7.286;2023-04-25T13:05:40;7.82;;;1.63;;
34497;SDS011;20744;50.938;7.286;2023-04-25T13:08:08;5.97;;;1.45;;
34497;SDS011;20744;50.938;7.286;2023-04-25T13:10:36;6.20;;;1.40;;
34497;SDS011;20744;50.938;7.286;2023-04-25T13:13:04;9.10;;;1.58;;
34497;SDS011;20744;50.938;7.286;2023-04-25T13:15:31;7.15;;;1.55;;
34497;SDS011;20744;50.938;7.286;2023-04-25T13:17:59;8.20;;;1.45;;
34497;SDS011;20744;50.938;7.286;2023-04-25T13:20:26;5.88;;;1.48;;
34497;SDS011;20744;50.938;7.286;2023-04-25T13:22:53;8.75;;;1.45;;
34497;SDS011;20744;50.938;7.286;2023-04-25T13:25:22;4.82;;;1.20;;
34497;SDS011;20744;50.938;7.286;2023-04-25T13:27:49;3.58;;;1.30;;
34497;SDS011;20744;50.938;7.286;2023-04-25T13:30:17;6.43;;;1.88;;
34497;SDS011;20744;50.938;7.286;2023-04-25T13:32:44;11.30;;;1.92;;
34497;SDS011;20744;50.938;7.286;2023-04-25T13:35:12;8.57;;;1.52;;
34497;SDS011;20744;50.938;7.286;2023-04-25T13:37:40;9.23;;;1.77;;
34497;SDS011;20744;50.938;7.286;2023-04-25T13:40:08;6.90;;;1.70;;
34497;SDS011;20744;50.938;7.286;2023-04-25T13:42:37;9.00;;;1.90;;
34497;SDS011;20744;50.938;7.286;2023-04-25T13:45:05;8.10;;;1.60;;
34497;SDS011;20744;50.938;7.286;2023-04-25T13:47:33;11.60;;;1.90;;
34497;SDS011;20744;50.938;7.286;2023-04-25T13:50:00;7.38;;;1.80;;
34497;SDS011;20744;50.938;7.286;2023-04-25T13:52:29;10.95;;;2.15;;
34497;SDS011;20744;50.938;7.286;2023-04-25T13:54:57;9.13;;;1.90;;
34497;SDS011;20744;50.938;7.286;2023-04-25T13:57:24;11.20;;;2.42;;
34497;SDS011;20744;50.938;7.286;2023-04-25T13:59:53;6.10;;;2.10;;
34497;SDS011;20744;50.938;7.286;2023-04-25T14:02:20;5.53;;;1.58;;
34497;SDS011;20744;50.938;7.286;2023-04-25T14:04:47;5.22;;;1.52;;
34497;SDS011;20744;50.938;7.286;2023-04-25T14:07:14;2.83;;;1.02;;
34497;SDS011;20744;50.938;7.286;2023-04-25T14:09:42;5.05;;;1.33;;
34497;SDS011;20744;50.938;7.286;2023-04-25T14:12:10;3.30;;;1.05;;
34497;SDS011;20744;50.938;7.286;2023-04-25T14:14:37;3.13;;;1.00;;
34497;SDS011;20744;50.938;7.286;2023-04-25T14:17:07;2.95;;;1.20;;
34497;SDS011;20744;50.938;7.286;2023-04-25T14:19:35;5.63;;;1.40;;
34497;SDS011;20744;50.938;7.286;2023-04-25T14:22:03;4.65;;;1.38;;
34497;SDS011;20744;50.938;7.286;2023-04-25T14:24:30;3.85;;;1.27;;
34497;SDS011;20744;50.938;7.286;2023-04-25T14:26:58;6.30;;;1.92;;
34497;SDS011;20744;50.938;7.286;2023-04-25T14:29:25;7.55;;;1.63;;
34497;SDS011;20744;50.938;7.286;2023-04-25T14:31:53;4.82;;;1.60;;
34497;SDS011;20744;50.938;7.286;2023-04-25T14:34:23;8.55;;;1.77;;
34497;SDS011;20744;50.938;7.286;2023-04-25T14:36:51;4.35;;;1.60;;
34497;SDS011;20744;50.938;7.286;2023-04-25T14:39:18;7.63;;;1.52;;
34497;SDS011;20744;50.938;7.286;2023-04-25T14:41:45;7.88;;;1.75;;
34497;SDS011;20744;50.938;7.286;2023-04-25T14:44:13;5.32;;;1.73;;
34497;SDS011;20744;50.938;7.286;2023-04-25T14:46:40;6.88;;;1.83;;
34497;SDS011;20744;50.938;7.286;2023-04-25T14:49:07;8.38;;;1.70;;
34497;SDS011;20744;50.938;7.286;2023-04-25T14:51:36;7.50;;;2.00;;
34497;SDS011;20744;50.938;7.286;2023-04-25T14:54:03;4.80;;;1.80;;